sensor_id;sensor_type;location;lat;lon;timestamp;pressure;altitude;pressure_sealevel;temperature;humidity
26719;BME280;14326;50.794;6.060;2023-02-03T00:01:22;100715.00;;;8.46;100.00
26719;BME280;14326;50.794;6.060;2023-02-03T00:03:50;100711.44;;;8.45;100.00
26719;BME280;14326;50.794;6.060;2023-02-03T00:06:17;100709.84;;;8.50;100.00
26719;BME280;14326;50.794;6.060;2023-02-03T00:08:44;100694.84;;;8.51;100.00
26719;BME280;14326;50.794;6.060;2023-02-03T00:11:11;100701.84;;;8.49;100.00
26719;BME280;14326;50.794;6.060;2023-02-03T00:13:38;100681.72;;;8.54;100.00
26719;BME280;14326;50.794;6.060;2023-02-03T00:16:19;100675.44;;;8.52;100.00
26719;BME280;14326;50.794;6.060;2023-02-03T00:18:46;100658.50;;;8.48;100.00
26719;BME280;14326;50.794;6.060;2023-02-03T00:21:13;100647.06;;;8.49;100.00
26719;BME280;14326;50.794;6.060;2023-02-03T00:23:40;100639.09;;;8.48;100.00
26719;BME280;14326;50.794;6.060;2023-02-03T00:26:11;100638.31;;;8.52;100.00
26719;BME280;14326;50.794;6.060;2023-02-03T00:28:38;100641.03;;;8.53;100.00
26719;BME280;14326;50.794;6.060;2023-02-03T00:31:05;100634.84;;;8.53;100.00
26719;BME280;14326;50.794;6.060;2023-02-03T00:33:40;100642.72;;;8.51;100.00
26719;BME280;14326;50.794;6.060;2023-02-03T00:36:08;100643.50;;;8.49;100.00
26719;BME280;14326;50.794;6.060;2023-02-03T00:38:35;100639.16;;;8.51;100.00
26719;BME280;14326;50.794;6.060;2023-02-03T00:41:01;100642.88;;;8.56;100.00
26719;BME280;14326;50.794;6.060;2023-02-03T00:43:30;100625.13;;;8.53;100.00
26719;BME280;14326;50.794;6.060;2023-02-03T00:45:57;100633.09;;;8.55;100.00
26719;BME280;14326;50.794;6.060;2023-02-03T00:48:24;100634.13;;;8.58;100.00
26719;BME280;14326;50.794;6.060;2023-02-03T00:50:52;100624.22;;;8.53;100.00
26719;BME280;14326;50.794;6.060;2023-02-03T00:53:18;100635.81;;;8.56;100.00
26719;BME280;14326;50.794;6.060;2023-02-03T00:55:45;100634.84;;;8.53;100.00
26719;BME280;14326;50.794;6.060;2023-02-03T00:58:12;100631.50;;;8.60;100.00
26719;BME280;14326;50.794;6.060;2023-02-03T01:00:38;100635.88;;;8.58;100.00
26719;BME280;14326;50.794;6.060;2023-02-03T01:03:05;100629.75;;;8.60;100.00
26719;BME280;14326;50.794;6.060;2023-02-03T01:05:31;100627.09;;;8.59;100.00
26719;BME280;14326;50.794;6.060;2023-02-03T01:08:01;100615.50;;;8.57;100.00
26719;BME280;14326;50.794;6.060;2023-02-03T01:10:28;100627.94;;;8.58;100.00
26719;BME280;14326;50.794;6.060;2023-02-03T01:12:55;100627.88;;;8.56;100.00
26719;BME280;14326;50.794;6.060;2023-02-03T01:15:22;100618.03;;;8.52;100.00
26719;BME280;14326;50.794;6.060;2023-02-03T01:17:48;100615.50;;;8.57;100.00
26719;BME280;14326;50.794;6.060;2023-02-03T01:20:15;100626.25;;;8.61;100.00
26719;BME280;14326;50.794;6.060;2023-02-03T01:22:42;100636.88;;;8.61;100.00
26719;BME280;14326;50.794;6.060;2023-02-03T01:25:10;100649.13;;;8.58;100.00
26719;BME280;14326;50.794;6.060;2023-02-03T01:27:36;100649.97;;;8.57;100.00
26719;BME280;14326;50.794;6.060;2023-02-03T01:30:04;100665.97;;;8.58;100.00
26719;BME280;14326;50.794;6.060;2023-02-03T01:32:30;100680.13;;;8.59;100.00
26719;BME280;14326;50.794;6.060;2023-02-03T01:34:57;100671.19;;;8.57;100.00
26719;BME280;14326;50.794;6.060;2023-02-03T01:37:24;100676.50;;;8.57;100.00
26719;BME280;14326;50.794;6.060;2023-02-03T01:39:50;100673.91;;;8.58;100.00
26719;BME280;14326;50.794;6.060;2023-02-03T01:42:18;100689.00;;;8.61;100.00
26719;BME280;14326;50.794;6.060;2023-02-03T01:44:46;100679.38;;;8.63;100.00
26719;BME280;14326;50.794;6.060;2023-02-03T01:47:19;100671.47;;;8.65;100.00
26719;BME280;14326;50.794;6.060;2023-02-03T01:49:51;100681.13;;;8.62;100.00
26719;BME280;14326;50.794;6.060;2023-02-03T01:52:20;100685.63;;;8.65;100.00
26719;BME280;14326;50.794;6.060;2023-02-03T01:54:49;100696.19;;;8.63;100.00
26719;BME280;14326;50.794;6.060;2023-02-03T01:57:21;100700.63;;;8.65;100.00
26719;BME280;14326;50.794;6.060;2023-02-03T01:59:52;100702.25;;;8.61;100.00
26719;BME280;14326;50.794;6.060;2023-02-03T02:02:19;100693.69;;;8.68;100.00
26719;BME280;14326;50.794;6.060;2023-02-03T02:04:53;100689.97;;;8.63;100.00
26719;BME280;14326;50.794;6.060;2023-02-03T02:07:23;100693.63;;;8.67;100.00
26719;BME280;14326;50.794;6.060;2023-02-03T02:09:49;100698.78;;;8.62;100.00
26719;BME280;14326;50.794;6.060;2023-02-03T02:12:16;100698.56;;;8.56;100.00
26719;BME280;14326;50.794;6.060;2023-02-03T02:14:45;100673.84;;;8.57;100.00
26719;BME280;14326;50.794;6.060;2023-02-03T02:17:30;100676.41;;;8.54;100.00
26719;BME280;14326;50.794;6.060;2023-02-03T02:23:35;100672.03;;;8.56;100.00
26719;BME280;14326;50.794;6.060;2023-02-03T02:26:21;100663.34;;;8.60;100.00
26719;BME280;14326;50.794;6.060;2023-02-03T02:29:10;100667.56;;;8.53;100.00
26719;BME280;14326;50.794;6.060;2023-02-03T02:31:51;100667.69;;;8.58;100.00
26719;BME280;14326;50.794;6.060;2023-02-03T02:34:29;100670.22;;;8.55;100.00
26719;BME280;14326;50.794;6.060;2023-02-03T02:37:06;100668.53;;;8.57;100.00
26719;BME280;14326;50.794;6.060;2023-02-03T02:39:39;100667.75;;;8.59;100.00
26719;BME280;14326;50.794;6.060;2023-02-03T02:42:14;100660.59;;;8.57;100.00
26719;BME280;14326;50.794;6.060;2023-02-03T02:44:45;100659.00;;;8.62;100.00
26719;BME280;14326;50.794;6.060;2023-02-03T02:47:18;100652.72;;;8.60;100.00
26719;BME280;14326;50.794;6.060;2023-02-03T02:49:49;100650.19;;;8.63;100.00
26719;BME280;14326;50.794;6.060;2023-02-03T02:52:19;100658.09;;;8.61;100.00
26719;BME280;14326;50.794;6.060;2023-02-03T02:54:51;100658.94;;;8.60;100.00
26719;BME280;14326;50.794;6.060;2023-02-03T02:57:20;100647.59;;;8.65;100.00
26719;BME280;14326;50.794;6.060;2023-02-03T02:59:48;100654.44;;;8.58;100.00
26719;BME280;14326;50.794;6.060;2023-02-03T03:02:16;100652.84;;;8.63;100.00
26719;BME280;14326;50.794;6.060;2023-02-03T03:04:45;100645.66;;;8.59;100.00
26719;BME280;14326;50.794;6.060;2023-02-03T03:07:17;100645.66;;;8.59;100.00
26719;BME280;14326;50.794;6.060;2023-02-03T03:09:47;100643.72;;;8.55;100.00
26719;BME280;14326;50.794;6.060;2023-02-03T03:12:18;100656.13;;;8.56;100.00
26719;BME280;14326;50.794;6.060;2023-02-03T03:14:51;100662.25;;;8.53;100.00
26719;BME280;14326;50.794;6.060;2023-02-03T03:17:24;100672.25;;;8.62;100.00
26719;BME280;14326;50.794;6.060;2023-02-03T03:19:54;100681.88;;;8.58;100.00
26719;BME280;14326;50.794;6.060;2023-02-03T03:22:25;100683.50;;;8.55;100.00
26719;BME280;14326;50.794;6.060;2023-02-03T03:24:57;100672.78;;;8.52;100.00
26719;BME280;14326;50.794;6.060;2023-02-03T03:27:28;100657.66;;;8.49;100.00
26719;BME280;14326;50.794;6.060;2023-02-03T03:29:59;100648.09;;;8.53;100.00
26719;BME280;14326;50.794;6.060;2023-02-03T03:32:29;100650.63;;;8.50;100.00
26719;BME280;14326;50.794;6.060;2023-02-03T03:34:57;100661.28;;;8.51;100.00
26719;BME280;14326;50.794;6.060;2023-02-03T03:37:31;100676.41;;;8.54;100.00
26719;BME280;14326;50.794;6.060;2023-02-03T03:40:00;100672.78;;;8.52;100.00
26719;BME280;14326;50.794;6.060;2023-02-03T03:42:33;100683.47;;;8.53;100.00
26719;BME280;14326;50.794;6.060;2023-02-03T03:45:06;100685.09;;;8.50;100.00
26719;BME280;14326;50.794;6.060;2023-02-03T03:47:41;100683.34;;;8.50;100.00
26719;BME280;14326;50.794;6.060;2023-02-03T03:52:42;100687.66;;;8.47;100.00
26719;BME280;14326;50.794;6.060;2023-02-03T03:55:10;100678.78;;;8.46;100.00
26719;BME280;14326;50.794;6.060;2023-02-03T03:57:40;100670.16;;;8.52;100.00
26719;BME280;14326;50.794;6.060;2023-02-03T04:00:12;100661.13;;;8.47;100.00
26719;BME280;14326;50.794;6.060;2023-02-03T04:02:45;100635.56;;;8.49;100.00
26719;BME280;14326;50.794;6.060;2023-02-03T04:05:18;100649.78;;;8.51;100.00
26719;BME280;14326;50.794;6.060;2023-02-03T04:07:56;100650.53;;;8.47;100.00
26719;BME280;14326;50.794;6.060;2023-02-03T04:10:33;100637.47;;;8.53;100.00
26719;BME280;14326;50.794;6.060;2023-02-03T04:13:11;100651.66;;;8.53;100.00
26719;BME280;14326;50.794;6.060;2023-02-03T04:15:49;100636.53;;;8.51;100.00
26719;BME280;14326;50.794;6.060;2023-02-03T04:18:20;100634.72;;;8.50;100.00
26719;BME280;14326;50.794;6.060;2023-02-03T04:20:52;100620.56;;;8.49;100.00
26719;BME280;14326;50.794;6.060;2023-02-03T04:23:23;100624.81;;;8.44;100.00
26719;BME280;14326;50.794;6.060;2023-02-03T04:25:53;100625.00;;;8.50;100.00
26719;BME280;14326;50.794;6.060;2023-02-03T04:28:25;100616.16;;;8.50;100.00
26719;BME280;14326;50.794;6.060;2023-02-03T04:30:54;100613.41;;;8.47;100.00
26719;BME280;14326;50.794;6.060;2023-02-03T04:33:26;100616.16;;;8.50;100.00
26719;BME280;14326;50.794;6.060;2023-02-03T04:35:59;100614.31;;;8.47;100.00
26719;BME280;14326;50.794;6.060;2023-02-03T04:38:28;100621.41;;;8.48;100.00
26719;BME280;14326;50.794;6.060;2023-02-03T04:40:54;100628.47;;;8.48;100.00
26719;BME280;14326;50.794;6.060;2023-02-03T04:43:21;100642.59;;;8.47;100.00
26719;BME280;14326;50.794;6.060;2023-02-03T04:45:47;100639.94;;;8.48;100.00
26719;BME280;14326;50.794;6.060;2023-02-03T04:48:14;100640.00;;;8.50;100.00
26719;BME280;14326;50.794;6.060;2023-02-03T04:50:42;100632.06;;;8.50;100.00
26719;BME280;14326;50.794;6.060;2023-02-03T04:53:09;100649.72;;;8.49;100.00
26719;BME280;14326;50.794;6.060;2023-02-03T04:55:35;100652.44;;;8.51;100.00
26719;BME280;14326;50.794;6.060;2023-02-03T04:58:02;100659.34;;;8.46;100.00
26719;BME280;14326;50.794;6.060;2023-02-03T05:00:29;100661.13;;;8.47;100.00
26719;BME280;14326;50.794;6.060;2023-02-03T05:02:55;100643.41;;;8.46;100.00
26719;BME280;14326;50.794;6.060;2023-02-03T05:05:22;100659.41;;;8.49;100.00
26719;BME280;14326;50.794;6.060;2023-02-03T05:07:50;100666.53;;;8.50;100.00
26719;BME280;14326;50.794;6.060;2023-02-03T05:10:17;100663.88;;;8.50;100.00
26719;BME280;14326;50.794;6.060;2023-02-03T05:12:43;100664.84;;;8.52;100.00
26719;BME280;14326;50.794;6.060;2023-02-03T05:15:10;100672.72;;;8.50;100.00
26719;BME280;14326;50.794;6.060;2023-02-03T05:17:37;100670.03;;;8.49;100.00
26719;BME280;14326;50.794;6.060;2023-02-03T05:20:05;100651.38;;;8.46;100.00
26719;BME280;14326;50.794;6.060;2023-02-03T05:22:32;100657.66;;;8.48;100.00
26719;BME280;14326;50.794;6.060;2023-02-03T05:25:01;100650.53;;;8.47;100.00
26719;BME280;14326;50.794;6.060;2023-02-03T05:27:28;100656.81;;;8.50;100.00
26719;BME280;14326;50.794;6.060;2023-02-03T05:29:55;100664.94;;;8.55;100.00
26719;BME280;14326;50.794;6.060;2023-02-03T05:32:21;100652.44;;;8.51;100.00
26719;BME280;14326;50.794;6.060;2023-02-03T05:34:48;100657.78;;;8.52;100.00
26719;BME280;14326;50.794;6.060;2023-02-03T05:37:15;100652.56;;;8.54;100.00
26719;BME280;14326;50.794;6.060;2023-02-03T05:39:41;100660.44;;;8.52;100.00
26719;BME280;14326;50.794;6.060;2023-02-03T05:42:09;100662.28;;;8.55;100.00
26719;BME280;14326;50.794;6.060;2023-02-03T05:44:35;100646.44;;;8.56;100.00
26719;BME280;14326;50.794;6.060;2023-02-03T05:47:02;100647.34;;;8.57;100.00
26719;BME280;14326;50.794;6.060;2023-02-03T05:49:28;100644.53;;;8.52;100.00
26719;BME280;14326;50.794;6.060;2023-02-03T05:51:55;100649.94;;;8.55;100.00
26719;BME280;14326;50.794;6.060;2023-02-03T05:54:22;100643.63;;;8.52;100.00
26719;BME280;14326;50.794;6.060;2023-02-03T05:56:49;100639.22;;;8.52;100.00
26719;BME280;14326;50.794;6.060;2023-02-03T05:59:17;100641.81;;;8.51;100.00
26719;BME280;14326;50.794;6.060;2023-02-03T06:01:44;100661.34;;;8.53;100.00
26719;BME280;14326;50.794;6.060;2023-02-03T06:04:11;100663.94;;;8.51;100.00
26719;BME280;14326;50.794;6.060;2023-02-03T06:06:37;100654.22;;;8.52;100.00
26719;BME280;14326;50.794;6.060;2023-02-03T06:09:05;100662.28;;;8.55;100.00
26719;BME280;14326;50.794;6.060;2023-02-03T06:11:34;100679.91;;;8.53;100.00
26719;BME280;14326;50.794;6.060;2023-02-03T06:14:01;100679.00;;;8.52;100.00
26719;BME280;14326;50.794;6.060;2023-02-03T06:16:29;100676.28;;;8.51;100.00
26719;BME280;14326;50.794;6.060;2023-02-03T06:18:56;100691.34;;;8.52;100.00
26719;BME280;14326;50.794;6.060;2023-02-03T06:21:25;100681.59;;;8.51;100.00
26719;BME280;14326;50.794;6.060;2023-02-03T06:23:52;100671.13;;;8.54;100.00
26719;BME280;14326;50.794;6.060;2023-02-03T06:26:19;100689.00;;;8.61;100.00
26719;BME280;14326;50.794;6.060;2023-02-03T06:28:46;100688.09;;;8.60;100.00
26719;BME280;14326;50.794;6.060;2023-02-03T06:31:13;100694.31;;;8.61;100.00
26719;BME280;14326;50.794;6.060;2023-02-03T06:33:41;100695.06;;;8.57;100.00
26719;BME280;14326;50.794;6.060;2023-02-03T06:36:08;100688.00;;;8.57;100.00
26719;BME280;14326;50.794;6.060;2023-02-03T06:38:35;100696.06;;;8.60;100.00
26719;BME280;14326;50.794;6.060;2023-02-03T06:41:01;100691.56;;;8.58;100.00
26719;BME280;14326;50.794;6.060;2023-02-03T06:43:28;100701.06;;;8.51;100.00
26719;BME280;14326;50.794;6.060;2023-02-03T06:45:55;100702.03;;;8.53;100.00
26719;BME280;14326;50.794;6.060;2023-02-03T06:48:21;100714.47;;;8.56;100.00
26719;BME280;14326;50.794;6.060;2023-02-03T06:50:49;100698.56;;;8.56;100.00
26719;BME280;14326;50.794;6.060;2023-02-03T06:53:16;100682.84;;;8.62;100.00
26719;BME280;14326;50.794;6.060;2023-02-03T06:55:43;100678.25;;;8.56;100.00
26719;BME280;14326;50.794;6.060;2023-02-03T06:58:09;100682.72;;;8.57;100.00
26719;BME280;14326;50.794;6.060;2023-02-03T07:00:36;100675.66;;;8.58;100.00
26719;BME280;14326;50.794;6.060;2023-02-03T07:03:03;100665.06;;;8.58;100.00
26719;BME280;14326;50.794;6.060;2023-02-03T07:05:29;100657.16;;;8.59;100.00
26719;BME280;14326;50.794;6.060;2023-02-03T07:07:58;100658.03;;;8.60;100.00
26719;BME280;14326;50.794;6.060;2023-02-03T07:10:24;100665.13;;;8.61;100.00
26719;BME280;14326;50.794;6.060;2023-02-03T07:12:51;100675.72;;;8.59;100.00
26719;BME280;14326;50.794;6.060;2023-02-03T07:15:18;100668.63;;;8.60;100.00
26719;BME280;14326;50.794;6.060;2023-02-03T07:17:46;100645.66;;;8.59;100.00
26719;BME280;14326;50.794;6.060;2023-02-03T07:20:19;100636.81;;;8.60;100.00
26719;BME280;14326;50.794;6.060;2023-02-03T07:22:50;100665.06;;;8.58;100.00
26719;BME280;14326;50.794;6.060;2023-02-03T07:25:18;100667.66;;;8.56;100.00
26719;BME280;14326;50.794;6.060;2023-02-03T07:27:45;100674.06;;;8.63;100.00
26719;BME280;14326;50.794;6.060;2023-02-03T07:30:13;100659.09;;;8.65;100.00
26719;BME280;14326;50.794;6.060;2023-02-03T07:32:39;100659.91;;;8.62;100.00
26719;BME280;14326;50.794;6.060;2023-02-03T07:35:06;100658.03;;;8.60;100.00
26719;BME280;14326;50.794;6.060;2023-02-03T07:37:33;100652.91;;;8.65;100.00
26719;BME280;14326;50.794;6.060;2023-02-03T07:40:00;100647.53;;;8.63;100.00
26719;BME280;14326;50.794;6.060;2023-02-03T07:42:28;100665.41;;;8.69;100.00
26719;BME280;14326;50.794;6.060;2023-02-03T07:44:55;100670.63;;;8.66;100.00
26719;BME280;14326;50.794;6.060;2023-02-03T07:47:21;100675.06;;;8.67;100.00
26719;BME280;14326;50.794;6.060;2023-02-03T07:49:48;100669.03;;;8.71;100.00
26719;BME280;14326;50.794;6.060;2023-02-03T07:52:14;100683.19;;;8.71;100.00
26719;BME280;14326;50.794;6.060;2023-02-03T07:54:41;100664.75;;;8.76;100.00
26719;BME280;14326;50.794;6.060;2023-02-03T07:57:08;100675.31;;;8.74;100.00
26719;BME280;14326;50.794;6.060;2023-02-03T07:59:36;100684.97;;;8.72;100.00
26719;BME280;14326;50.794;6.060;2023-02-03T08:02:04;100686.69;;;8.70;100.00
26719;BME280;14326;50.794;6.060;2023-02-03T08:04:33;100706.38;;;8.77;100.00
26719;BME280;14326;50.794;6.060;2023-02-03T08:07:01;100709.75;;;8.73;100.00
26719;BME280;14326;50.794;6.060;2023-02-03T08:09:28;100716.06;;;8.76;100.00
26719;BME280;14326;50.794;6.060;2023-02-03T08:11:55;100716.78;;;8.72;100.00
26719;BME280;14326;50.794;6.060;2023-02-03T08:14:21;100716.91;;;8.75;100.00
26719;BME280;14326;50.794;6.060;2023-02-03T08:16:49;100720.47;;;8.76;100.00
26719;BME280;14326;50.794;6.060;2023-02-03T08:19:16;100714.25;;;8.75;100.00
26719;BME280;14326;50.794;6.060;2023-02-03T08:21:42;100715.22;;;8.77;100.00
26719;BME280;14326;50.794;6.060;2023-02-03T08:24:09;100705.47;;;8.78;100.00
26719;BME280;14326;50.794;6.060;2023-02-03T08:26:36;100708.13;;;8.78;100.00
26719;BME280;14326;50.794;6.060;2023-02-03T08:29:03;100720.53;;;8.77;100.00
26719;BME280;14326;50.794;6.060;2023-02-03T08:31:30;100731.22;;;8.80;100.00
26719;BME280;14326;50.794;6.060;2023-02-03T08:33:58;100726.91;;;8.84;100.00
26719;BME280;14326;50.794;6.060;2023-02-03T08:36:24;100727.94;;;8.87;100.00
26719;BME280;14326;50.794;6.060;2023-02-03T08:38:51;100724.44;;;8.88;100.00
26719;BME280;14326;50.794;6.060;2023-02-03T08:41:18;100720.81;;;8.86;100.00
26719;BME280;14326;50.794;6.060;2023-02-03T08:43:44;100731.56;;;8.89;100.00
26719;BME280;14326;50.794;6.060;2023-02-03T08:46:12;100717.22;;;8.84;100.00
26719;BME280;14326;50.794;6.060;2023-02-03T08:48:39;100708.34;;;8.84;100.00
26719;BME280;14326;50.794;6.060;2023-02-03T08:51:10;100716.44;;;8.87;100.00
26719;BME280;14326;50.794;6.060;2023-02-03T08:53:37;100725.16;;;8.84;100.00
26719;BME280;14326;50.794;6.060;2023-02-03T08:56:04;100728.94;;;8.91;100.00
26719;BME280;14326;50.794;6.060;2023-02-03T08:58:31;100740.38;;;8.88;100.00
26719;BME280;14326;50.794;6.060;2023-02-03T09:01:05;100728.91;;;8.89;100.00
26719;BME280;14326;50.794;6.060;2023-02-03T09:03:31;100743.00;;;8.88;100.00
26719;BME280;14326;50.794;6.060;2023-02-03T09:05:58;100759.03;;;8.91;100.00
26719;BME280;14326;50.794;6.060;2023-02-03T09:08:26;100743.00;;;8.88;100.00
26719;BME280;14326;50.794;6.060;2023-02-03T09:10:53;100747.50;;;8.91;100.00
26719;BME280;14326;50.794;6.060;2023-02-03T09:13:20;100740.44;;;8.91;100.00
26719;BME280;14326;50.794;6.060;2023-02-03T09:15:46;100739.66;;;8.94;100.00
26719;BME280;14326;50.794;6.060;2023-02-03T09:18:13;100761.78;;;8.94;100.00
26719;BME280;14326;50.794;6.060;2023-02-03T09:20:40;100754.69;;;8.93;100.00
26719;BME280;14326;50.794;6.060;2023-02-03T09:23:07;100747.63;;;8.94;100.00
26719;BME280;14326;50.794;6.060;2023-02-03T09:25:35;100749.38;;;8.93;100.00
26719;BME280;14326;50.794;6.060;2023-02-03T09:28:01;100752.97;;;8.95;100.00
26719;BME280;14326;50.794;6.060;2023-02-03T09:30:28;100741.56;;;8.98;100.00
26719;BME280;14326;50.794;6.060;2023-02-03T09:32:57;100751.28;;;8.97;100.00
26719;BME280;14326;50.794;6.060;2023-02-03T09:35:23;100727.38;;;8.97;100.00
26719;BME280;14326;50.794;6.060;2023-02-03T09:37:51;100741.47;;;8.95;100.00
26719;BME280;14326;50.794;6.060;2023-02-03T09:40:21;100747.56;;;8.92;100.00
26719;BME280;14326;50.794;6.060;2023-02-03T09:42:58;100735.34;;;8.97;100.00
26719;BME280;14326;50.794;6.060;2023-02-03T09:45:31;100722.78;;;8.92;100.00
26719;BME280;14326;50.794;6.060;2023-02-03T09:48:02;100727.25;;;8.93;100.00
26719;BME280;14326;50.794;6.060;2023-02-03T09:50:33;100736.88;;;8.89;100.00
26719;BME280;14326;50.794;6.060;2023-02-03T09:53:04;100733.34;;;8.90;100.00
26719;BME280;14326;50.794;6.060;2023-02-03T09:55:35;100741.97;;;8.83;100.00
26719;BME280;14326;50.794;6.060;2023-02-03T09:58:10;100730.31;;;8.80;100.00
26719;BME280;14326;50.794;6.060;2023-02-03T10:00:41;100737.28;;;8.76;100.00
26719;BME280;14326;50.794;6.060;2023-02-03T10:03:17;100750.66;;;8.79;100.00
26719;BME280;14326;50.794;6.060;2023-02-03T10:06:09;100750.44;;;8.73;100.00
26719;BME280;14326;50.794;6.060;2023-02-03T10:08:51;100753.22;;;8.76;100.00
26719;BME280;14326;50.794;6.060;2023-02-03T10:11:33;100750.56;;;8.76;100.00
26719;BME280;14326;50.794;6.060;2023-02-03T10:14:15;100759.44;;;8.78;100.00
26719;BME280;14326;50.794;6.060;2023-02-03T10:16:55;100752.41;;;8.79;100.00
26719;BME280;14326;50.794;6.060;2023-02-03T10:19:35;100761.25;;;8.79;100.00
26719;BME280;14326;50.794;6.060;2023-02-03T10:22:06;100747.84;;;8.75;100.00
26719;BME280;14326;50.794;6.060;2023-02-03T10:24:39;100760.94;;;8.70;100.00
26719;BME280;14326;50.794;6.060;2023-02-03T10:27:16;100772.41;;;8.69;100.00
26719;BME280;14326;50.794;6.060;2023-02-03T10:29:50;100771.56;;;8.70;100.00
26719;BME280;14326;50.794;6.060;2023-02-03T10:32:23;100789.06;;;8.65;100.00
26719;BME280;14326;50.794;6.060;2023-02-03T10:34:51;100790.06;;;8.69;100.00
26719;BME280;14326;50.794;6.060;2023-02-03T10:37:26;100799.00;;;8.71;100.00
26719;BME280;14326;50.794;6.060;2023-02-03T10:39:56;100810.28;;;8.65;100.00
26719;BME280;14326;50.794;6.060;2023-02-03T10:42:24;100805.69;;;8.61;100.00
26719;BME280;14326;50.794;6.060;2023-02-03T10:45:12;100806.38;;;8.55;100.00
26719;BME280;14326;50.794;6.060;2023-02-03T10:47:42;100818.72;;;8.55;100.00
26719;BME280;14326;50.794;6.060;2023-02-03T10:50:15;100812.50;;;8.53;100.00
26719;BME280;14326;50.794;6.060;2023-02-03T10:52:42;100818.72;;;8.55;100.00
26719;BME280;14326;50.794;6.060;2023-02-03T10:55:28;100821.22;;;8.50;100.00
26719;BME280;14326;50.794;6.060;2023-02-03T10:57:56;100813.44;;;8.55;100.00
26719;BME280;14326;50.794;6.060;2023-02-03T11:00:27;100795.78;;;8.55;100.00
26719;BME280;14326;50.794;6.060;2023-02-03T11:02:56;100782.66;;;8.60;100.00
26719;BME280;14326;50.794;6.060;2023-02-03T11:05:24;100781.00;;;8.62;100.00
26719;BME280;14326;50.794;6.060;2023-02-03T11:07:51;100769.41;;;8.60;100.00
26719;BME280;14326;50.794;6.060;2023-02-03T11:10:26;100768.34;;;8.55;100.00
26719;BME280;14326;50.794;6.060;2023-02-03T11:13:10;100767.63;;;8.59;100.00
26719;BME280;14326;50.794;6.060;2023-02-03T11:15:43;100775.59;;;8.59;100.00
26719;BME280;14326;50.794;6.060;2023-02-03T11:18:25;100772.81;;;8.56;100.00
26719;BME280;14326;50.794;6.060;2023-02-03T11:20:52;100764.09;;;8.60;100.00
26719;BME280;14326;50.794;6.060;2023-02-03T11:23:20;100748.31;;;8.63;100.00
26719;BME280;14326;50.794;6.060;2023-02-03T11:25:47;100750.13;;;8.64;100.00
26719;BME280;14326;50.794;6.060;2023-02-03T11:28:18;100743.91;;;8.63;100.00
26719;BME280;14326;50.794;6.060;2023-02-03T11:30:53;100751.06;;;8.66;100.00
26719;BME280;14326;50.794;6.060;2023-02-03T11:33:26;100759.91;;;8.65;100.00
26719;BME280;14326;50.794;6.060;2023-02-03T11:35:55;100745.03;;;8.70;100.00
26719;BME280;14326;50.794;6.060;2023-02-03T11:38:29;100746.72;;;8.68;100.00
26719;BME280;14326;50.794;6.060;2023-02-03T11:40:58;100745.03;;;8.70;100.00
26719;BME280;14326;50.794;6.060;2023-02-03T11:43:30;100736.38;;;8.76;100.00
26719;BME280;14326;50.794;6.060;2023-02-03T11:46:11;100738.97;;;8.74;100.00
26719;BME280;14326;50.794;6.060;2023-02-03T11:49:02;100733.59;;;8.71;100.00
26719;BME280;14326;50.794;6.060;2023-02-03T11:51:43;100739.81;;;8.73;100.00
26719;BME280;14326;50.794;6.060;2023-02-03T11:54:31;100744.22;;;8.73;100.00
26719;BME280;14326;50.794;6.060;2023-02-03T11:57:37;100745.13;;;8.73;100.00
26719;BME280;14326;50.794;6.060;2023-02-03T12:00:23;100755.72;;;8.72;100.00
26719;BME280;14326;50.794;6.060;2023-02-03T12:09:38;100752.16;;;8.71;100.00
26719;BME280;14326;50.794;6.060;2023-02-03T12:12:34;100768.16;;;8.74;100.00
26719;BME280;14326;50.794;6.060;2023-02-03T12:15:35;100765.56;;;8.76;100.00
26719;BME280;14326;50.794;6.060;2023-02-03T12:18:25;100770.75;;;8.73;100.00
26719;BME280;14326;50.794;6.060;2023-02-03T12:21:27;100768.97;;;8.72;100.00
26719;BME280;14326;50.794;6.060;2023-02-03T12:24:06;100764.53;;;8.72;100.00
26719;BME280;14326;50.794;6.060;2023-02-03T12:26:52;100775.16;;;8.72;100.00
26719;BME280;14326;50.794;6.060;2023-02-03T12:29:36;100772.63;;;8.75;100.00
26719;BME280;14326;50.794;6.060;2023-02-03T12:32:20;100776.88;;;8.70;100.00
26719;BME280;14326;50.794;6.060;2023-02-03T12:35:04;100778.63;;;8.70;100.00
26719;BME280;14326;50.794;6.060;2023-02-03T12:37:42;100783.16;;;8.74;100.00
26719;BME280;14326;50.794;6.060;2023-02-03T12:40:14;100781.34;;;8.71;100.00
26719;BME280;14326;50.794;6.060;2023-02-03T12:42:46;100775.97;;;8.70;100.00
26719;BME280;14326;50.794;6.060;2023-02-03T12:45:19;100775.97;;;8.70;100.00
26719;BME280;14326;50.794;6.060;2023-02-03T12:47:54;100783.00;;;8.69;100.00
26719;BME280;14326;50.794;6.060;2023-02-03T12:50:32;100782.16;;;8.70;100.00
26719;BME280;14326;50.794;6.060;2023-02-03T12:53:04;100771.56;;;8.70;100.00
26719;BME280;14326;50.794;6.060;2023-02-03T12:55:38;100775.97;;;8.70;100.00
26719;BME280;14326;50.794;6.060;2023-02-03T12:58:11;100776.03;;;8.71;100.00
26719;BME280;14326;50.794;6.060;2023-02-03T13:00:44;100773.25;;;8.68;100.00
26719;BME280;14326;50.794;6.060;2023-02-03T13:03:18;100763.59;;;8.70;100.00
26719;BME280;14326;50.794;6.060;2023-02-03T13:05:58;100768.06;;;8.71;100.00
26719;BME280;14326;50.794;6.060;2023-02-03T13:08:31;100765.44;;;8.73;100.00
26719;BME280;14326;50.794;6.060;2023-02-03T13:11:12;100763.75;;;8.75;100.00
26719;BME280;14326;50.794;6.060;2023-02-03T13:13:47;100776.94;;;8.72;100.00
26719;BME280;14326;50.794;6.060;2023-02-03T13:16:18;100761.00;;;8.72;100.00
26719;BME280;14326;50.794;6.060;2023-02-03T13:18:52;100758.38;;;8.73;100.00
26719;BME280;14326;50.794;6.060;2023-02-03T13:21:21;100755.66;;;8.70;100.00